Terminal Aerodrome Forecast
Issued by NWS

Home | Current Version | Previous Version | Text Only | Print | Product List | Glossary On
Versions: 1 2 3 4 5 6 7 8 9 10 11 12 13
000
FTUS44 KCRP 231100
TAFLRD
TAF
KLRD 231125Z 2312/2412 16008KT P6SM SKC
     FM231600 15012G20KT P6SM SKC
     FM240800 15008KT P6SM SKC=

USA.gov is the U.S. government's official web portal to all federal, state and local government web resources and services.